Terminal Aerodrome Forecast
Issued by NWS Charleston, WV

Current Version | Previous Version | Graphics & Text | Print | Product List | Glossary On
Versions: 1 2 3 4 5 6 7 8 9 10 11 12 13 14 15 16 17 18 19 20 21 22 23
683
FTUS41 KRLX 240529 CCA
TAFBKW
TAF COR
KBKW 240529Z 2406/2506 13008KT P6SM OVC040
      TEMPO 2406/2409 2SM SHRA BR BKN010
     FM240900 14006KT P6SM OVC008
     FM241400 14008KT P6SM OVC015
     FM241700 13009G17KT P6SM SHRA OVC020=

USA.gov is the U.S. government's official web portal to all federal, state and local government web resources and services.